sensor_id;sensor_type;location;lat;lon;timestamp;pressure;altitude;pressure_sealevel;temperature;humidity
28927;BME280;16038;47.692;9.400;2023-09-19T00:02:14;96477.47;;;15.53;100.00
28927;BME280;16038;47.692;9.400;2023-09-19T00:04:39;96469.97;;;15.57;100.00
28927;BME280;16038;47.692;9.400;2023-09-19T00:07:05;96461.28;;;15.59;100.00
28927;BME280;16038;47.692;9.400;2023-09-19T00:09:31;96473.84;;;15.67;100.00
28927;BME280;16038;47.692;9.400;2023-09-19T00:12:04;96465.56;;;15.67;100.00
28927;BME280;16038;47.692;9.400;2023-09-19T00:14:30;96472.31;;;15.59;100.00
28927;BME280;16038;47.692;9.400;2023-09-19T00:16:55;96473.97;;;15.49;100.00
28927;BME280;16038;47.692;9.400;2023-09-19T00:19:20;96485.78;;;15.49;100.00
28927;BME280;16038;47.692;9.400;2023-09-19T00:21:46;96477.50;;;15.49;100.00
28927;BME280;16038;47.692;9.400;2023-09-19T00:24:12;96479.84;;;15.55;100.00
28927;BME280;16038;47.692;9.400;2023-09-19T00:26:39;96475.81;;;15.70;100.00
28927;BME280;16038;47.692;9.400;2023-09-19T00:29:05;96482.69;;;16.00;100.00
28927;BME280;16038;47.692;9.400;2023-09-19T00:31:34;96480.50;;;16.22;100.00
28927;BME280;16038;47.692;9.400;2023-09-19T00:34:02;96485.97;;;16.29;100.00
28927;BME280;16038;47.692;9.400;2023-09-19T00:36:29;96485.56;;;16.31;100.00
28927;BME280;16038;47.692;9.400;2023-09-19T00:38:55;96489.97;;;16.24;100.00
28927;BME280;16038;47.692;9.400;2023-09-19T00:41:20;96495.50;;;16.24;100.00
28927;BME280;16038;47.692;9.400;2023-09-19T00:43:46;96496.66;;;16.27;100.00
28927;BME280;16038;47.692;9.400;2023-09-19T00:46:16;96502.56;;;16.29;100.00
28927;BME280;16038;47.692;9.400;2023-09-19T00:48:42;96501.03;;;16.24;100.00
28927;BME280;16038;47.692;9.400;2023-09-19T00:51:08;96498.69;;;16.19;100.00
28927;BME280;16038;47.692;9.400;2023-09-19T00:53:34;96497.13;;;16.18;100.00
28927;BME280;16038;47.692;9.400;2023-09-19T00:56:00;96491.53;;;16.25;100.00
28927;BME280;16038;47.692;9.400;2023-09-19T00:58:25;96495.94;;;16.19;100.00
28927;BME280;16038;47.692;9.400;2023-09-19T01:00:51;96494.38;;;16.15;100.00
28927;BME280;16038;47.692;9.400;2023-09-19T01:03:18;96491.28;;;16.09;100.00
28927;BME280;16038;47.692;9.400;2023-09-19T01:05:44;96491.75;;;16.00;100.00
28927;BME280;16038;47.692;9.400;2023-09-19T01:08:09;96499.25;;;16.00;100.00
28927;BME280;16038;47.692;9.400;2023-09-19T01:10:44;96494.44;;;16.08;100.00
28927;BME280;16038;47.692;9.400;2023-09-19T01:13:43;96499.47;;;16.20;100.00
28927;BME280;16038;47.692;9.400;2023-09-19T01:16:35;96494.63;;;16.31;100.00
28927;BME280;16038;47.692;9.400;2023-09-19T01:22:11;96504.44;;;16.39;100.00
28927;BME280;16038;47.692;9.400;2023-09-19T01:30:46;96503.22;;;16.44;100.00
28927;BME280;16038;47.692;9.400;2023-09-19T01:33:12;96508.75;;;16.44;100.00
28927;BME280;16038;47.692;9.400;2023-09-19T01:35:38;96507.97;;;16.40;100.00
28927;BME280;16038;47.692;9.400;2023-09-19T01:38:07;96517.84;;;16.41;100.00
28927;BME280;16038;47.692;9.400;2023-09-19T01:40:41;96507.22;;;16.36;100.00
28927;BME280;16038;47.692;9.400;2023-09-19T01:43:21;96513.88;;;16.42;100.00
28927;BME280;16038;47.692;9.400;2023-09-19T01:46:16;96522.56;;;16.44;100.00
28927;BME280;16038;47.692;9.400;2023-09-19T01:49:12;96521.50;;;16.31;100.00
28927;BME280;16038;47.692;9.400;2023-09-19T01:51:48;96523.50;;;16.27;100.00
28927;BME280;16038;47.692;9.400;2023-09-19T01:54:24;96525.47;;;16.30;100.00
28927;BME280;16038;47.692;9.400;2023-09-19T01:56:57;96515.16;;;16.34;100.00
28927;BME280;16038;47.692;9.400;2023-09-19T01:59:34;96517.53;;;16.32;100.00
28927;BME280;16038;47.692;9.400;2023-09-19T02:02:00;96519.09;;;16.33;100.00
28927;BME280;16038;47.692;9.400;2023-09-19T02:04:27;96517.53;;;16.32;100.00
28927;BME280;16038;47.692;9.400;2023-09-19T02:06:53;96525.03;;;16.31;100.00
28927;BME280;16038;47.692;9.400;2023-09-19T02:09:18;96524.63;;;16.33;100.00
28927;BME280;16038;47.692;9.400;2023-09-19T02:11:44;96523.88;;;16.29;100.00
28927;BME280;16038;47.692;9.400;2023-09-19T02:14:09;96526.34;;;16.19;100.00
28927;BME280;16038;47.692;9.400;2023-09-19T02:16:35;96527.53;;;16.15;100.00
28927;BME280;16038;47.692;9.400;2023-09-19T02:19:01;96522.03;;;16.15;100.00
28927;BME280;16038;47.692;9.400;2023-09-19T02:21:30;96524.44;;;16.09;100.00
28927;BME280;16038;47.692;9.400;2023-09-19T02:23:56;96527.56;;;16.11;100.00
28927;BME280;16038;47.692;9.400;2023-09-19T02:26:21;96528.00;;;16.06;100.00
28927;BME280;16038;47.692;9.400;2023-09-19T02:28:48;96537.88;;;16.07;100.00
28927;BME280;16038;47.692;9.400;2023-09-19T02:31:14;96543.38;;;16.11;100.00
28927;BME280;16038;47.692;9.400;2023-09-19T02:33:39;96552.00;;;16.16;100.00
28927;BME280;16038;47.692;9.400;2023-09-19T02:36:05;96550.50;;;16.08;100.00
28927;BME280;16038;47.692;9.400;2023-09-19T02:38:30;96531.88;;;16.16;100.00
28927;BME280;16038;47.692;9.400;2023-09-19T02:40:55;96540.19;;;16.16;100.00
28927;BME280;16038;47.692;9.400;2023-09-19T02:43:22;96543.28;;;16.21;100.00
28927;BME280;16038;47.692;9.400;2023-09-19T02:45:48;96547.63;;;16.22;100.00
28927;BME280;16038;47.692;9.400;2023-09-19T02:48:20;96538.16;;;16.20;100.00
28927;BME280;16038;47.692;9.400;2023-09-19T02:50:48;96545.22;;;16.28;100.00
28927;BME280;16038;47.692;9.400;2023-09-19T02:53:14;96548.34;;;16.30;100.00
28927;BME280;16038;47.692;9.400;2023-09-19T02:55:40;96544.81;;;16.30;100.00
28927;BME280;16038;47.692;9.400;2023-09-19T02:58:06;96547.03;;;16.42;100.00
28927;BME280;16038;47.692;9.400;2023-09-19T03:00:39;96558.25;;;16.24;100.00
28927;BME280;16038;47.692;9.400;2023-09-19T03:03:07;96546.03;;;16.25;100.00
28927;BME280;16038;47.692;9.400;2023-09-19T03:05:34;96545.59;;;16.30;100.00
28927;BME280;16038;47.692;9.400;2023-09-19T03:07:59;96561.41;;;16.26;100.00
28927;BME280;16038;47.692;9.400;2023-09-19T03:10:28;96564.19;;;16.26;100.00
28927;BME280;16038;47.692;9.400;2023-09-19T03:12:54;96555.44;;;16.31;100.00
28927;BME280;16038;47.692;9.400;2023-09-19T03:15:20;96552.31;;;16.25;100.00
28927;BME280;16038;47.692;9.400;2023-09-19T03:17:47;96553.50;;;16.28;100.00
28927;BME280;16038;47.692;9.400;2023-09-19T03:20:14;96553.47;;;16.32;100.00
28927;BME280;16038;47.692;9.400;2023-09-19T03:22:43;96556.63;;;16.30;100.00
28927;BME280;16038;47.692;9.400;2023-09-19T03:25:08;96555.41;;;16.35;100.00
28927;BME280;16038;47.692;9.400;2023-09-19T03:27:35;96559.44;;;16.27;100.00
28927;BME280;16038;47.692;9.400;2023-09-19T03:30:01;96548.28;;;16.37;100.00
28927;BME280;16038;47.692;9.400;2023-09-19T03:32:29;96545.22;;;16.28;100.00
28927;BME280;16038;47.692;9.400;2023-09-19T03:34:54;96553.88;;;16.30;100.00
28927;BME280;16038;47.692;9.400;2023-09-19T03:37:20;96552.66;;;16.31;100.00
28927;BME280;16038;47.692;9.400;2023-09-19T03:39:45;96548.31;;;16.34;100.00
28927;BME280;16038;47.692;9.400;2023-09-19T03:42:10;96549.41;;;16.43;100.00
28927;BME280;16038;47.692;9.400;2023-09-19T03:44:36;96546.72;;;16.36;100.00
28927;BME280;16038;47.692;9.400;2023-09-19T03:47:01;96545.50;;;16.41;100.00
28927;BME280;16038;47.692;9.400;2023-09-19T03:49:29;96550.69;;;16.35;100.00
28927;BME280;16038;47.692;9.400;2023-09-19T03:51:55;96547.16;;;16.28;100.00
28927;BME280;16038;47.692;9.400;2023-09-19T03:54:21;96553.97;;;16.19;100.00
28927;BME280;16038;47.692;9.400;2023-09-19T03:56:46;96548.78;;;16.25;100.00
28927;BME280;16038;47.692;9.400;2023-09-19T03:59:12;96557.88;;;16.22;100.00
28927;BME280;16038;47.692;9.400;2023-09-19T04:01:37;96555.53;;;16.20;100.00
28927;BME280;16038;47.692;9.400;2023-09-19T04:04:03;96556.28;;;16.24;100.00
28927;BME280;16038;47.692;9.400;2023-09-19T04:06:34;96550.44;;;16.19;100.00
28927;BME280;16038;47.692;9.400;2023-09-19T04:09:00;96553.53;;;16.24;100.00
28927;BME280;16038;47.692;9.400;2023-09-19T04:11:26;96550.75;;;16.28;100.00
28927;BME280;16038;47.692;9.400;2023-09-19T04:13:52;96556.63;;;16.30;100.00
28927;BME280;16038;47.692;9.400;2023-09-19T04:16:17;96547.25;;;16.17;100.00
28927;BME280;16038;47.692;9.400;2023-09-19T04:18:43;96554.75;;;16.20;100.00
28927;BME280;16038;47.692;9.400;2023-09-19T04:21:08;96553.19;;;16.19;100.00
28927;BME280;16038;47.692;9.400;2023-09-19T04:23:34;96554.81;;;16.09;100.00
28927;BME280;16038;47.692;9.400;2023-09-19T04:26:00;96558.41;;;16.02;100.00
28927;BME280;16038;47.692;9.400;2023-09-19T04:28:25;96557.69;;;15.95;100.00
28927;BME280;16038;47.692;9.400;2023-09-19T04:30:53;96558.50;;;15.92;100.00
28927;BME280;16038;47.692;9.400;2023-09-19T04:33:19;96555.56;;;16.13;100.00
28927;BME280;16038;47.692;9.400;2023-09-19T04:35:44;96563.16;;;16.02;100.00
28927;BME280;16038;47.692;9.400;2023-09-19T04:38:10;96565.56;;;16.00;100.00
28927;BME280;16038;47.692;9.400;2023-09-19T04:40:35;96563.88;;;16.10;100.00
28927;BME280;16038;47.692;9.400;2023-09-19T04:43:00;96570.22;;;16.10;100.00
28927;BME280;16038;47.692;9.400;2023-09-19T04:45:28;96577.72;;;16.06;100.00
28927;BME280;16038;47.692;9.400;2023-09-19T04:47:54;96581.69;;;16.05;100.00
28927;BME280;16038;47.692;9.400;2023-09-19T04:50:20;96582.50;;;16.02;100.00
28927;BME280;16038;47.692;9.400;2023-09-19T04:52:49;96584.88;;;16.03;100.00
28927;BME280;16038;47.692;9.400;2023-09-19T04:55:17;96589.94;;;16.12;100.00
28927;BME280;16038;47.692;9.400;2023-09-19T04:57:47;96583.97;;;16.17;100.00
28927;BME280;16038;47.692;9.400;2023-09-19T05:00:14;96585.56;;;16.15;100.00
28927;BME280;16038;47.692;9.400;2023-09-19T05:02:41;96587.53;;;16.18;100.00
28927;BME280;16038;47.692;9.400;2023-09-19T05:05:07;96590.66;;;16.20;100.00
28927;BME280;16038;47.692;9.400;2023-09-19T05:07:34;96594.59;;;16.26;100.00
28927;BME280;16038;47.692;9.400;2023-09-19T05:09:59;96596.59;;;16.18;100.00
28927;BME280;16038;47.692;9.400;2023-09-19T05:12:26;96600.97;;;16.16;100.00
28927;BME280;16038;47.692;9.400;2023-09-19T05:14:52;96601.72;;;16.20;100.00
28927;BME280;16038;47.692;9.400;2023-09-19T05:17:18;96605.59;;;16.30;100.00
28927;BME280;16038;47.692;9.400;2023-09-19T05:19:43;96602.81;;;16.33;100.00
28927;BME280;16038;47.692;9.400;2023-09-19T05:22:09;96605.59;;;16.30;100.00
28927;BME280;16038;47.692;9.400;2023-09-19T05:24:34;96604.81;;;16.25;100.00
28927;BME280;16038;47.692;9.400;2023-09-19T05:27:00;96614.69;;;16.30;100.00
28927;BME280;16038;47.692;9.400;2023-09-19T05:29:26;96604.00;;;16.32;100.00
28927;BME280;16038;47.692;9.400;2023-09-19T05:31:51;96613.88;;;16.33;100.00
28927;BME280;16038;47.692;9.400;2023-09-19T05:34:18;96610.31;;;16.33;100.00
28927;BME280;16038;47.692;9.400;2023-09-19T05:36:44;96621.31;;;16.40;100.00
28927;BME280;16038;47.692;9.400;2023-09-19T05:39:10;96623.66;;;16.41;100.00
28927;BME280;16038;47.692;9.400;2023-09-19T05:41:36;96625.28;;;16.39;100.00
28927;BME280;16038;47.692;9.400;2023-09-19T05:44:02;96624.47;;;16.38;100.00
28927;BME280;16038;47.692;9.400;2023-09-19T05:46:28;96628.88;;;16.32;100.00
28927;BME280;16038;47.692;9.400;2023-09-19T05:48:55;96627.56;;;16.51;100.00
28927;BME280;16038;47.692;9.400;2023-09-19T05:51:22;96633.00;;;16.62;100.00
28927;BME280;16038;47.692;9.400;2023-09-19T05:53:47;96630.88;;;16.77;100.00
28927;BME280;16038;47.692;9.400;2023-09-19T05:56:14;96635.22;;;16.74;100.00
28927;BME280;16038;47.692;9.400;2023-09-19T05:58:40;96641.28;;;16.62;100.00
28927;BME280;16038;47.692;9.400;2023-09-19T06:01:09;96641.63;;;16.68;100.00
28927;BME280;16038;47.692;9.400;2023-09-19T06:03:35;96655.81;;;16.70;100.00
28927;BME280;16038;47.692;9.400;2023-09-19T06:06:01;96654.91;;;16.87;100.00
28927;BME280;16038;47.692;9.400;2023-09-19T06:08:32;96649.28;;;16.98;100.00
28927;BME280;16038;47.692;9.400;2023-09-19T06:10:59;96648.41;;;17.05;100.00
28927;BME280;16038;47.692;9.400;2023-09-19T06:13:24;96649.59;;;17.07;100.00
28927;BME280;16038;47.692;9.400;2023-09-19T06:15:52;96662.94;;;17.12;100.00
28927;BME280;16038;47.692;9.400;2023-09-19T06:18:17;96662.09;;;17.19;100.00
28927;BME280;16038;47.692;9.400;2023-09-19T06:20:48;96666.91;;;17.15;100.00
28927;BME280;16038;47.692;9.400;2023-09-19T06:23:16;96666.13;;;17.14;100.00
28927;BME280;16038;47.692;9.400;2023-09-19T06:25:42;96668.94;;;17.11;100.00
28927;BME280;16038;47.692;9.400;2023-09-19T06:28:09;96673.59;;;17.17;100.00
28927;BME280;16038;47.692;9.400;2023-09-19T06:30:37;96674.34;;;17.22;100.00
28927;BME280;16038;47.692;9.400;2023-09-19T06:33:06;96679.53;;;17.16;100.00
28927;BME280;16038;47.692;9.400;2023-09-19T06:35:35;96676.56;;;17.34;100.00
28927;BME280;16038;47.692;9.400;2023-09-19T06:38:03;96671.81;;;17.38;100.00
28927;BME280;16038;47.692;9.400;2023-09-19T06:40:29;96686.19;;;17.60;100.00
28927;BME280;16038;47.692;9.400;2023-09-19T06:42:57;96681.19;;;17.48;100.00
28927;BME280;16038;47.692;9.400;2023-09-19T06:45:22;96680.66;;;17.22;100.00
28927;BME280;16038;47.692;9.400;2023-09-19T06:47:49;96684.38;;;17.05;100.00
28927;BME280;16038;47.692;9.400;2023-09-19T06:50:20;96691.31;;;17.24;100.00
28927;BME280;16038;47.692;9.400;2023-09-19T06:52:52;96685.66;;;16.96;100.00
28927;BME280;16038;47.692;9.400;2023-09-19T06:55:19;96683.22;;;17.02;100.00
28927;BME280;16038;47.692;9.400;2023-09-19T06:57:48;96685.78;;;17.24;100.00
28927;BME280;16038;47.692;9.400;2023-09-19T07:00:15;96684.59;;;17.59;100.00
28927;BME280;16038;47.692;9.400;2023-09-19T07:02:44;96688.88;;;17.67;100.00
28927;BME280;16038;47.692;9.400;2023-09-19T07:05:10;96697.09;;;17.74;100.00
28927;BME280;16038;47.692;9.400;2023-09-19T07:07:35;96708.00;;;17.92;100.00
28927;BME280;16038;47.692;9.400;2023-09-19T07:10:03;96706.47;;;17.84;100.00
28927;BME280;16038;47.692;9.400;2023-09-19T07:12:31;96703.13;;;18.00;100.00
28927;BME280;16038;47.692;9.400;2023-09-19T07:14:58;96708.28;;;18.29;100.00
28927;BME280;16038;47.692;9.400;2023-09-19T07:17:23;96706.91;;;18.44;100.00
28927;BME280;16038;47.692;9.400;2023-09-19T07:19:49;96711.00;;;18.32;100.00
28927;BME280;16038;47.692;9.400;2023-09-19T07:22:15;96714.66;;;18.57;100.00
28927;BME280;16038;47.692;9.400;2023-09-19T07:24:41;96718.97;;;19.08;100.00
28927;BME280;16038;47.692;9.400;2023-09-19T07:27:06;96724.97;;;19.07;100.00
28927;BME280;16038;47.692;9.400;2023-09-19T07:29:32;96719.84;;;19.93;100.00
28927;BME280;16038;47.692;9.400;2023-09-19T07:31:57;96729.66;;;20.54;100.00
28927;BME280;16038;47.692;9.400;2023-09-19T07:34:23;96736.25;;;21.13;97.18
28927;BME280;16038;47.692;9.400;2023-09-19T07:36:48;96735.50;;;21.87;91.72
28927;BME280;16038;47.692;9.400;2023-09-19T07:39:14;96741.81;;;22.33;86.98
28927;BME280;16038;47.692;9.400;2023-09-19T07:41:39;96737.63;;;21.37;90.18
28927;BME280;16038;47.692;9.400;2023-09-19T07:44:04;96747.28;;;21.95;87.57
28927;BME280;16038;47.692;9.400;2023-09-19T07:46:30;96747.16;;;21.99;84.72
28927;BME280;16038;47.692;9.400;2023-09-19T07:48:57;96745.03;;;21.90;85.92
28927;BME280;16038;47.692;9.400;2023-09-19T07:51:22;96750.28;;;21.71;85.60
28927;BME280;16038;47.692;9.400;2023-09-19T07:53:48;96757.03;;;21.87;84.04
28927;BME280;16038;47.692;9.400;2023-09-19T07:56:13;96745.03;;;21.90;82.71
28927;BME280;16038;47.692;9.400;2023-09-19T07:58:40;96745.63;;;22.10;82.81
28927;BME280;16038;47.692;9.400;2023-09-19T08:01:10;96746.16;;;22.05;81.45
28927;BME280;16038;47.692;9.400;2023-09-19T08:03:36;96750.50;;;21.93;81.83
28927;BME280;16038;47.692;9.400;2023-09-19T08:06:08;96764.16;;;22.85;78.25
28927;BME280;16038;47.692;9.400;2023-09-19T08:08:34;96763.47;;;22.94;73.45
28927;BME280;16038;47.692;9.400;2023-09-19T08:11:03;96767.06;;;23.33;71.23
28927;BME280;16038;47.692;9.400;2023-09-19T08:13:46;96756.75;;;23.29;70.30
28927;BME280;16038;47.692;9.400;2023-09-19T08:16:16;96771.69;;;23.96;68.79
28927;BME280;16038;47.692;9.400;2023-09-19T08:18:47;96767.22;;;24.74;65.11
28927;BME280;16038;47.692;9.400;2023-09-19T08:21:13;96770.41;;;25.35;61.65
28927;BME280;16038;47.692;9.400;2023-09-19T08:23:39;96771.09;;;24.46;62.45
28927;BME280;16038;47.692;9.400;2023-09-19T08:26:05;96773.53;;;24.97;61.04
28927;BME280;16038;47.692;9.400;2023-09-19T08:28:34;96770.75;;;24.66;61.57
28927;BME280;16038;47.692;9.400;2023-09-19T08:31:03;96781.25;;;23.86;63.08
28927;BME280;16038;47.692;9.400;2023-09-19T08:33:33;96774.66;;;23.67;65.74
28927;BME280;16038;47.692;9.400;2023-09-19T08:35:59;96779.47;;;24.68;62.41
28927;BME280;16038;47.692;9.400;2023-09-19T08:38:24;96783.66;;;24.94;59.79
28927;BME280;16038;47.692;9.400;2023-09-19T08:40:57;96789.91;;;25.48;58.13
28927;BME280;16038;47.692;9.400;2023-09-19T08:43:23;96803.63;;;25.46;57.73
28927;BME280;16038;47.692;9.400;2023-09-19T08:45:49;96795.97;;;25.06;57.44
28927;BME280;16038;47.692;9.400;2023-09-19T08:48:26;96800.72;;;24.56;61.63
28927;BME280;16038;47.692;9.400;2023-09-19T08:50:57;96798.69;;;23.90;63.41
28927;BME280;16038;47.692;9.400;2023-09-19T08:56:18;96798.53;;;23.59;66.57
28927;BME280;16038;47.692;9.400;2023-09-19T08:58:52;96792.53;;;23.70;65.99
28927;BME280;16038;47.692;9.400;2023-09-19T09:01:20;96799.75;;;24.81;61.79
28927;BME280;16038;47.692;9.400;2023-09-19T09:03:55;96807.16;;;24.97;59.65
28927;BME280;16038;47.692;9.400;2023-09-19T09:06:23;96802.19;;;24.03;63.07
28927;BME280;16038;47.692;9.400;2023-09-19T09:08:52;96797.94;;;23.16;67.23
28927;BME280;16038;47.692;9.400;2023-09-19T09:11:18;96790.25;;;22.40;71.30
28927;BME280;16038;47.692;9.400;2023-09-19T09:13:47;96795.56;;;23.75;66.25
28927;BME280;16038;47.692;9.400;2023-09-19T09:16:14;96800.94;;;25.02;60.40
28927;BME280;16038;47.692;9.400;2023-09-19T09:18:42;96806.03;;;24.63;57.49
28927;BME280;16038;47.692;9.400;2023-09-19T09:21:09;96797.91;;;23.90;58.79
28927;BME280;16038;47.692;9.400;2023-09-19T09:23:35;96802.63;;;23.80;59.38
28927;BME280;16038;47.692;9.400;2023-09-19T09:26:00;96798.59;;;23.07;61.39
28927;BME280;16038;47.692;9.400;2023-09-19T09:28:31;96801.97;;;22.35;65.94
28927;BME280;16038;47.692;9.400;2023-09-19T09:31:00;96798.78;;;21.90;68.94
28927;BME280;16038;47.692;9.400;2023-09-19T09:33:33;96796.38;;;21.43;72.01
28927;BME280;16038;47.692;9.400;2023-09-19T09:35:59;96799.28;;;21.56;73.15
28927;BME280;16038;47.692;9.400;2023-09-19T09:38:43;96799.88;;;21.93;71.84
28927;BME280;16038;47.692;9.400;2023-09-19T09:41:09;96802.47;;;22.00;73.46
28927;BME280;16038;47.692;9.400;2023-09-19T09:43:39;96796.44;;;21.72;72.51
28927;BME280;16038;47.692;9.400;2023-09-19T09:52:00;96797.84;;;21.81;75.05
28927;BME280;16038;47.692;9.400;2023-09-19T09:54:26;96800.63;;;22.10;72.81
28927;BME280;16038;47.692;9.400;2023-09-19T09:57:08;96786.63;;;21.35;76.29
28927;BME280;16038;47.692;9.400;2023-09-19T09:59:52;96793.25;;;21.25;75.71
28927;BME280;16038;47.692;9.400;2023-09-19T10:02:35;96793.06;;;21.32;77.00
28927;BME280;16038;47.692;9.400;2023-09-19T10:05:21;96779.66;;;21.43;77.42
28927;BME280;16038;47.692;9.400;2023-09-19T10:07:50;96781.66;;;21.43;76.76
28927;BME280;16038;47.692;9.400;2023-09-19T10:10:34;96782.63;;;21.69;76.14
28927;BME280;16038;47.692;9.400;2023-09-19T10:13:13;96797.09;;;22.22;72.80
28927;BME280;16038;47.692;9.400;2023-09-19T10:15:43;96785.91;;;22.09;72.41
28927;BME280;16038;47.692;9.400;2023-09-19T10:18:19;96799.34;;;22.95;68.27
28927;BME280;16038;47.692;9.400;2023-09-19T10:20:46;96792.13;;;23.58;65.04
28927;BME280;16038;47.692;9.400;2023-09-19T10:23:12;96793.97;;;23.52;64.22
28927;BME280;16038;47.692;9.400;2023-09-19T10:25:42;96799.69;;;23.10;65.14
28927;BME280;16038;47.692;9.400;2023-09-19T10:28:09;96799.66;;;22.71;67.64
28927;BME280;16038;47.692;9.400;2023-09-19T10:30:41;96796.94;;;22.29;68.79
28927;BME280;16038;47.692;9.400;2023-09-19T10:33:13;96787.38;;;21.85;73.03
28927;BME280;16038;47.692;9.400;2023-09-19T10:35:43;96794.63;;;21.66;74.53
28927;BME280;16038;47.692;9.400;2023-09-19T10:38:13;96796.81;;;21.25;77.85
28927;BME280;16038;47.692;9.400;2023-09-19T10:40:39;96797.56;;;20.76;82.14
28927;BME280;16038;47.692;9.400;2023-09-19T10:43:16;96797.16;;;20.78;83.40
28927;BME280;16038;47.692;9.400;2023-09-19T10:45:46;96788.94;;;20.71;84.09
28927;BME280;16038;47.692;9.400;2023-09-19T10:48:15;96802.50;;;20.69;85.26
28927;BME280;16038;47.692;9.400;2023-09-19T10:51:04;96797.75;;;20.86;84.19
28927;BME280;16038;47.692;9.400;2023-09-19T10:53:50;96796.56;;;20.67;85.79
28927;BME280;16038;47.692;9.400;2023-09-19T10:56:49;96793.75;;;20.87;84.86
28927;BME280;16038;47.692;9.400;2023-09-19T10:59:20;96795.00;;;21.02;85.21
28927;BME280;16038;47.692;9.400;2023-09-19T11:04:33;96792.44;;;21.41;81.10
28927;BME280;16038;47.692;9.400;2023-09-19T11:07:04;96792.91;;;21.23;81.86
28927;BME280;16038;47.692;9.400;2023-09-19T11:09:54;96785.69;;;21.58;80.45
28927;BME280;16038;47.692;9.400;2023-09-19T11:14:54;96784.88;;;21.08;82.23
28927;BME280;16038;47.692;9.400;2023-09-19T11:30:48;96773.38;;;21.72;78.64
28927;BME280;16038;47.692;9.400;2023-09-19T11:33:32;96767.28;;;21.61;79.03
28927;BME280;16038;47.692;9.400;2023-09-19T11:43:48;96767.75;;;21.88;77.88
28927;BME280;16038;47.692;9.400;2023-09-19T11:46:13;96772.69;;;22.26;74.24
28927;BME280;16038;47.692;9.400;2023-09-19T11:48:47;96781.97;;;22.36;75.04
28927;BME280;16038;47.692;9.400;2023-09-19T11:51:14;96782.78;;;22.37;73.32
28927;BME280;16038;47.692;9.400;2023-09-19T11:53:48;96776.13;;;22.85;70.77
28927;BME280;16038;47.692;9.400;2023-09-19T11:56:16;96779.56;;;23.41;67.49
28927;BME280;16038;47.692;9.400;2023-09-19T11:58:46;96777.91;;;22.79;68.31
28927;BME280;16038;47.692;9.400;2023-09-19T12:01:15;96775.84;;;23.44;67.50
28927;BME280;16038;47.692;9.400;2023-09-19T12:03:47;96776.66;;;23.44;67.33
28927;BME280;16038;47.692;9.400;2023-09-19T12:06:18;96762.38;;;22.91;66.33
28927;BME280;16038;47.692;9.400;2023-09-19T12:08:43;96756.25;;;22.96;68.24
28927;BME280;16038;47.692;9.400;2023-09-19T12:11:15;96764.16;;;22.59;67.19
28927;BME280;16038;47.692;9.400;2023-09-19T12:13:44;96752.97;;;22.46;69.13
28927;BME280;16038;47.692;9.400;2023-09-19T12:16:18;96756.22;;;22.58;68.69
28927;BME280;16038;47.692;9.400;2023-09-19T12:18:44;96753.22;;;22.65;66.88
28927;BME280;16038;47.692;9.400;2023-09-19T12:26:23;96746.28;;;22.31;67.79
28927;BME280;16038;47.692;9.400;2023-09-19T12:28:49;96737.25;;;22.10;70.64
28927;BME280;16038;47.692;9.400;2023-09-19T12:31:17;96745.91;;;22.29;70.05
28927;BME280;16038;47.692;9.400;2023-09-19T12:33:44;96742.63;;;22.18;73.17
28927;BME280;16038;47.692;9.400;2023-09-19T12:36:23;96730.19;;;22.35;71.01
28927;BME280;16038;47.692;9.400;2023-09-19T12:38:50;96739.03;;;22.59;69.52
28927;BME280;16038;47.692;9.400;2023-09-19T12:41:16;96730.16;;;22.22;67.79
28927;BME280;16038;47.692;9.400;2023-09-19T12:43:43;96736.13;;;22.37;69.03
28927;BME280;16038;47.692;9.400;2023-09-19T12:46:09;96727.97;;;22.30;69.60
28927;BME280;16038;47.692;9.400;2023-09-19T12:48:35;96726.97;;;22.37;67.03
28927;BME280;16038;47.692;9.400;2023-09-19T12:51:04;96723.41;;;22.62;69.41
28927;BME280;16038;47.692;9.400;2023-09-19T12:53:36;96716.03;;;22.42;69.00
28927;BME280;16038;47.692;9.400;2023-09-19T12:56:06;96721.28;;;22.53;67.54
28927;BME280;16038;47.692;9.400;2023-09-19T12:58:34;96718.16;;;22.64;68.46
28927;BME280;16038;47.692;9.400;2023-09-19T13:01:00;96715.16;;;22.71;67.38
28927;BME280;16038;47.692;9.400;2023-09-19T13:03:30;96708.06;;;22.92;67.17
28927;BME280;16038;47.692;9.400;2023-09-19T13:08:28;96702.50;;;22.92;67.24
28927;BME280;16038;47.692;9.400;2023-09-19T13:11:15;96697.03;;;22.76;67.36
28927;BME280;16038;47.692;9.400;2023-09-19T13:13:47;96694.59;;;22.52;66.51
28927;BME280;16038;47.692;9.400;2023-09-19T13:16:21;96695.81;;;22.38;66.52
28927;BME280;16038;47.692;9.400;2023-09-19T13:18:52;96695.94;;;22.47;65.93
28927;BME280;16038;47.692;9.400;2023-09-19T13:21:31;96687.41;;;22.25;69.65
28927;BME280;16038;47.692;9.400;2023-09-19T13:24:19;96694.31;;;22.21;67.13
28927;BME280;16038;47.692;9.400;2023-09-19T13:26:44;96690.00;;;22.32;67.64
28927;BME280;16038;47.692;9.400;2023-09-19T13:29:11;96694.97;;;22.12;71.18
28927;BME280;16038;47.692;9.400;2023-09-19T13:31:36;96689.22;;;22.32;69.58
28927;BME280;16038;47.692;9.400;2023-09-19T13:34:06;96690.00;;;22.32;69.93
28927;BME280;16038;47.692;9.400;2023-09-19T13:36:32;96685.13;;;22.49;68.74
28927;BME280;16038;47.692;9.400;2023-09-19T13:38:57;96679.53;;;22.62;67.76
28927;BME280;16038;47.692;9.400;2023-09-19T13:41:24;96684.00;;;22.73;68.25
28927;BME280;16038;47.692;9.400;2023-09-19T13:43:50;96672.72;;;22.76;66.38
28927;BME280;16038;47.692;9.400;2023-09-19T13:46:15;96668.97;;;22.92;65.46
28927;BME280;16038;47.692;9.400;2023-09-19T13:48:43;96668.56;;;22.81;66.92
28927;BME280;16038;47.692;9.400;2023-09-19T13:51:08;96668.88;;;22.83;65.16
28927;BME280;16038;47.692;9.400;2023-09-19T13:53:34;96665.84;;;22.90;66.32
28927;BME280;16038;47.692;9.400;2023-09-19T13:55:59;96674.34;;;23.12;65.31